Time;durP1;ratioP1;P1;durP2;ratioP2;P2;SDS_P1;SDS_P2;PMS_P1;PMS_P2;Temp;Humidity;BMP_temperature;BMP_pressure;BME280_temperature;BME280_humidity;BME280_pressure;Samples;Min_cycle;Max_cycle;Signal;HPM_P1;HPM_P2
2022/06/20 00:00:39;;;;;;;4.40;2.20;;;16.90;99.90;;;;;;6252529;22;20452;-84
2022/06/20 00:03:36;;;;;;;6.50;2.83;;;16.90;92.30;;;;;;6252915;23;20388;-83
2022/06/20 00:06:12;;;;;;;6.03;3.17;;;16.90;99.90;;;;;;6254323;22;20355;-83
2022/06/20 00:08:40;;;;;;;7.50;2.80;;;16.90;99.90;;;;;;6251875;22;20384;-82
2022/06/20 00:11:29;;;;;;;4.87;3.00;;;16.90;99.90;;;;;;6253458;23;20380;-83
2022/06/20 00:14:06;;;;;;;7.40;3.53;;;16.90;99.90;;;;;;6252657;23;20383;-83
2022/06/20 00:16:36;;;;;;;5.40;3.27;;;16.90;96.10;;;;;;6252397;23;20374;-84
2022/06/20 00:19:04;;;;;;;9.00;3.33;;;16.90;99.90;;;;;;6252509;22;20506;-83
2022/06/20 00:21:47;;;;;;;6.40;2.90;;;16.90;95.00;;;;;;6252398;23;20872;-83
2022/06/20 00:24:16;;;;;;;6.37;3.40;;;16.90;16.50;;;;;;6251140;23;20384;-83
2022/06/20 00:26:44;;;;;;;8.90;3.07;;;16.90;1.00;;;;;;6254399;22;20879;-83
2022/06/20 00:29:24;;;;;;;9.90;3.67;;;16.90;1.00;;;;;;6251186;22;20502;-83
2022/06/20 00:32:09;;;;;;;9.93;3.90;;;16.90;1.00;;;;;;6253058;23;20389;-82
2022/06/20 00:35:00;;;;;;;4.00;3.23;;;16.90;1.00;;;;;;6252239;23;20406;-84
2022/06/20 00:37:31;;;;;;;4.97;3.40;;;16.90;1.00;;;;;;6252687;23;20385;-84
2022/06/20 00:40:27;;;;;;;9.20;3.80;;;16.90;1.00;;;;;;6252951;22;20454;-84
2022/06/20 00:42:55;;;;;;;6.03;3.63;;;16.80;1.00;;;;;;6251229;22;20772;-83
2022/06/20 00:45:28;;;;;;;5.73;3.53;;;16.80;1.00;;;;;;6252278;23;20415;-84
2022/06/20 00:48:12;;;;;;;7.10;3.40;;;16.80;1.00;;;;;;6252532;23;20379;-84
2022/06/20 00:50:48;;;;;;;7.23;3.90;;;16.80;1.00;;;;;;6251623;22;20947;-83
2022/06/20 00:53:47;;;;;;;8.70;3.47;;;16.90;1.00;;;;;;6254898;22;20770;-83
2022/06/20 00:56:46;;;;;;;;;;;;;;;;;;;;;
2022/06/20 00:59:22;;;;;;;7.53;4.17;;;16.90;99.90;;;;;;6255141;22;20813;-84
2022/06/20 01:01:56;;;;;;;8.30;4.20;;;16.90;99.90;;;;;;6253639;23;20391;-83
2022/06/20 01:04:50;;;;;;;10.80;4.03;;;16.90;99.90;;;;;;6253901;23;20382;-83
2022/06/20 01:07:32;;;;;;;7.57;4.60;;;16.90;1.00;;;;;;6254334;22;20351;-84
2022/06/20 01:10:21;;;;;;;11.77;4.80;;;16.90;1.00;;;;;;6251291;22;20438;-83
2022/06/20 01:13:00;;;;;;;10.10;5.33;;;16.90;99.90;;;;;;6251112;23;20393;-85
2022/06/20 01:15:37;;;;;;;6.93;4.30;;;16.90;1.00;;;;;;6251830;22;20366;-83
2022/06/20 01:18:18;;;;;;;9.20;4.20;;;16.90;1.00;;;;;;6251230;23;20389;-84
2022/06/20 01:20:58;;;;;;;;;;;;;;;;;;;;;
2022/06/20 01:23:35;;;;;;;7.93;5.30;;;16.80;43.00;;;;;;6252485;23;20386;-84
2022/06/20 01:26:23;;;;;;;10.30;4.90;;;16.90;99.90;;;;;;6250153;23;20397;-85
2022/06/20 01:29:02;;;;;;;9.27;5.20;;;16.90;1.00;;;;;;6251022;22;20374;-84
2022/06/20 01:31:32;;;;;;;9.13;4.70;;;16.80;1.00;;;;;;6250545;23;20432;-84
2022/06/20 01:34:03;;;;;;;10.27;5.50;;;16.70;1.00;;;;;;6250734;23;20386;-83
2022/06/20 01:39:30;;;;;;;9.07;6.23;;;16.50;99.90;;;;;;6251184;22;20429;-83
2022/06/20 01:44:52;;;;;;;17.93;6.40;;;16.20;99.90;;;;;;6252486;23;20362;-84
2022/06/20 01:47:27;;;;;;;10.63;7.23;;;16.10;1.00;;;;;;6251957;23;20398;-83
2022/06/20 01:50:11;;;;;;;8.13;7.20;;;16.00;1.00;;;;;;6249963;22;20515;-83
2022/06/20 01:52:52;;;;;;;;;;;;;;;;;;;;;
2022/06/20 01:55:32;;;;;;;10.50;7.30;;;15.90;86.50;;;;;;6252096;23;20445;-83
2022/06/20 01:58:32;;;;;;;11.70;8.57;;;15.80;99.90;;;;;;6251987;23;20857;-84
2022/06/20 02:01:10;;;;;;;10.70;7.57;;;15.80;1.00;;;;;;6245302;23;20436;-84
2022/06/20 02:03:46;;;;;;;14.30;8.80;;;15.80;1.00;;;;;;6252930;22;20393;-83
2022/06/20 02:06:17;;;;;;;9.83;7.30;;;15.80;1.00;;;;;;6252268;23;20381;-84
2022/06/20 02:08:48;;;;;;;9.47;7.77;;;15.70;1.00;;;;;;6253533;22;20385;-84
2022/06/20 02:11:38;;;;;;;12.43;8.20;;;15.70;1.00;;;;;;6254123;22;20389;-84
2022/06/20 02:14:11;;;;;;;10.67;7.67;;;15.80;26.40;;;;;;6252493;23;20382;-83
2022/06/20 02:16:52;;;;;;;14.60;6.47;;;15.70;77.40;;;;;;6251826;23;20458;-84
2022/06/20 02:19:29;;;;;;;9.17;6.27;;;15.60;99.90;;;;;;6255231;22;20451;-85
2022/06/20 02:22:01;;;;;;;11.43;6.90;;;15.50;99.90;;;;;;6257604;23;20385;-84
2022/06/20 02:24:43;;;;;;;;;;;;;;;;;;;;;
2022/06/20 02:27:27;;;;;;;13.07;7.10;;;15.40;99.90;;;;;;6254299;23;20405;-84
2022/06/20 02:30:01;;;;;;;13.57;8.27;;;15.50;99.90;;;;;;6253712;22;20413;-84
2022/06/20 02:32:44;;;;;;;9.60;7.80;;;15.50;99.90;;;;;;6255826;22;20385;-84
2022/06/20 02:35:16;;;;;;;7.90;6.23;;;15.50;99.90;;;;;;6252866;23;20408;-84
2022/06/20 02:38:08;;;;;;;10.50;6.30;;;15.60;99.90;;;;;;6253924;23;20381;-84
2022/06/20 02:40:42;;;;;;;9.20;6.73;;;15.70;99.90;;;;;;6248275;22;20956;-84
2022/06/20 02:43:53;;;;;;;7.23;6.50;;;15.70;99.90;;;;;;6250164;23;20775;-84
2022/06/20 02:46:23;;;;;;;10.30;6.73;;;15.70;99.90;;;;;;6194799;23;20552;-84
2022/06/20 02:49:01;;;;;;;6.13;5.53;;;15.70;99.90;;;;;;6249614;22;20382;-83
2022/06/20 02:51:58;;;;;;;8.70;5.33;;;15.70;99.90;;;;;;6250207;23;20460;-83
2022/06/20 02:54:32;;;;;;;10.30;6.40;;;15.70;99.90;;;;;;6248722;22;20378;-84
2022/06/20 02:57:16;;;;;;;10.43;6.17;;;15.70;99.90;;;;;;6249653;23;20412;-84
2022/06/20 02:59:51;;;;;;;10.87;6.37;;;15.70;99.90;;;;;;6250493;22;20483;-84
2022/06/20 03:02:37;;;;;;;10.00;6.53;;;15.70;39.60;;;;;;6252351;22;20445;-84
2022/06/20 03:05:15;;;;;;;;;;;;;;;;;;;;;
2022/06/20 03:07:57;;;;;;;;;;;;;;;;;;;;;
2022/06/20 03:11:00;;;;;;;;;;;;;;;;;;;;;
2022/06/20 03:13:29;;;;;;;9.77;5.70;;;15.60;1.00;;;;;;6252001;23;20392;-83
2022/06/20 03:15:58;;;;;;;10.70;5.10;;;15.70;1.00;;;;;;6250926;22;20427;-84
2022/06/20 03:18:24;;;;;;;10.03;4.70;;;15.60;1.00;;;;;;6253751;23;20382;-83
2022/06/20 03:20:52;;;;;;;12.07;5.33;;;15.60;1.00;;;;;;6252747;22;20436;-85
2022/06/20 03:23:26;;;;;;;9.77;4.70;;;15.60;1.00;;;;;;6250466;23;20869;-83
2022/06/20 03:26:18;;;;;;;8.67;4.13;;;15.60;99.90;;;;;;6249800;23;20383;-84
2022/06/20 03:28:58;;;;;;;;;;;;;;;;;;;;;
2022/06/20 03:31:27;;;;;;;9.30;4.13;;;15.60;99.90;;;;;;6251645;23;20388;-83
2022/06/20 03:34:05;;;;;;;9.17;4.27;;;15.50;99.90;;;;;;6250915;23;20406;-84
2022/06/20 03:36:38;;;;;;;11.10;3.80;;;15.50;99.90;;;;;;6249844;23;20698;-83
2022/06/20 03:39:15;;;;;;;;;;;;;;;;;;;;;
2022/06/20 03:41:47;;;;;;;9.83;4.23;;;15.50;99.90;;;;;;6250859;23;20782;-83
2022/06/20 03:44:31;;;;;;;;;;;;;;;;;;;;;
2022/06/20 03:47:12;;;;;;;9.27;4.50;;;15.50;99.90;;;;;;6250227;23;20420;-84
2022/06/20 03:50:03;;;;;;;6.30;3.83;;;15.50;1.00;;;;;;6225179;23;20432;-83
2022/06/20 03:52:42;;;;;;;7.43;4.07;;;15.60;99.90;;;;;;6251888;23;20368;-83
2022/06/20 03:55:33;;;;;;;7.23;3.80;;;15.60;99.90;;;;;;6223939;23;20811;-83
2022/06/20 03:58:16;;;;;;;7.83;4.50;;;15.70;99.90;;;;;;6224704;23;20382;-84
2022/06/20 04:01:10;;;;;;;10.53;5.40;;;15.70;99.90;;;;;;6223752;23;20429;-83
2022/06/20 04:04:00;;;;;;;10.67;4.87;;;15.70;58.20;;;;;;6213720;23;20389;-84
2022/06/20 04:06:51;;;;;;;11.70;5.00;;;15.70;1.00;;;;;;6223531;23;20849;-84
2022/06/20 04:12:26;;;;;;;4.90;4.03;;;15.70;81.10;;;;;;6249888;23;20938;-83
2022/06/20 04:14:55;;;;;;;11.43;3.90;;;15.70;91.80;;;;;;6223745;23;20903;-84
2022/06/20 04:20:49;;;;;;;9.80;4.30;;;15.70;99.90;;;;;;6248855;22;20486;-84
2022/06/20 04:23:53;;;;;;;5.00;4.03;;;15.80;99.90;;;;;;6221553;23;20427;-84
2022/06/20 04:26:49;;;;;;;9.70;3.83;;;15.80;99.90;;;;;;6248506;23;20397;-84
2022/06/20 04:29:30;;;;;;;14.83;4.47;;;15.80;99.90;;;;;;6222352;23;20417;-84
2022/06/20 04:32:09;;;;;;;7.23;4.07;;;15.80;99.90;;;;;;6221980;23;20417;-84
2022/06/20 04:34:48;;;;;;;9.13;4.70;;;15.80;99.90;;;;;;6222899;23;20405;-84
2022/06/20 04:37:16;;;;;;;7.23;4.20;;;15.80;99.90;;;;;;6221018;23;20387;-83
2022/06/20 04:40:00;;;;;;;11.17;5.00;;;15.70;99.90;;;;;;6247954;22;20491;-84
2022/06/20 04:42:47;;;;;;;8.27;4.23;;;15.70;1.00;;;;;;6223198;23;20386;-84
2022/06/20 04:45:16;;;;;;;10.43;5.37;;;15.80;1.00;;;;;;6250182;23;20367;-83
2022/06/20 04:48:05;;;;;;;7.93;4.83;;;15.80;1.00;;;;;;6222402;23;20532;-83
2022/06/20 04:50:35;;;;;;;9.23;5.37;;;15.90;1.00;;;;;;6221947;23;20842;-84
2022/06/20 04:53:09;;;;;;;9.23;5.83;;;16.00;1.00;;;;;;6223190;23;20409;-83
2022/06/20 04:55:44;;;;;;;7.00;4.50;;;16.00;1.00;;;;;;6222909;23;20386;-83
2022/06/20 04:58:23;;;;;;;12.57;5.03;;;16.00;1.00;;;;;;6248684;23;20362;-83
2022/06/20 05:00:52;;;;;;;11.23;5.23;;;16.10;1.00;;;;;;6223081;23;20952;-85
2022/06/20 05:03:24;;;;;;;7.33;4.77;;;16.10;1.00;;;;;;6222837;23;20394;-84
2022/06/20 05:06:21;;;;;;;9.23;4.47;;;16.10;1.00;;;;;;6221906;23;20369;-83
2022/06/20 05:09:21;;;;;;;9.80;4.30;;;16.10;1.00;;;;;;6223177;22;20382;-83
2022/06/20 05:12:46;;;;;;;;;;;;;;;;;;;;;
2022/06/20 05:15:29;;;;;;;9.13;4.17;;;16.10;1.00;;;;;;6200597;23;20789;-84
2022/06/20 05:18:56;;;;;;;7.80;4.00;;;16.10;1.00;;;;;;6249959;23;20385;-84
2022/06/20 05:21:57;;;;;;;13.70;5.87;;;16.10;99.90;;;;;;6132148;23;20405;-83
2022/06/20 05:28:29;;;;;;;;;;;;;;;;;;;;;
2022/06/20 05:31:46;;;;;;;10.23;3.60;;;16.10;99.90;;;;;;6213760;23;20498;-85
2022/06/20 05:34:40;;;;;;;8.03;4.20;;;16.10;99.90;;;;;;6222858;23;20869;-83
2022/06/20 05:37:32;;;;;;;6.60;3.73;;;16.10;99.90;;;;;;6223751;23;20374;-83
2022/06/20 05:40:42;;;;;;;12.43;4.27;;;16.10;99.90;;;;;;6225552;23;20434;-84
2022/06/20 05:43:33;;;;;;;10.77;4.17;;;16.20;99.90;;;;;;6212080;23;20389;-82
2022/06/20 05:46:22;;;;;;;8.70;3.97;;;16.20;99.90;;;;;;6233091;23;20427;-85
2022/06/20 05:48:55;;;;;;;13.07;4.93;;;16.20;57.40;;;;;;6238930;22;20477;-83
2022/06/20 05:51:35;;;;;;;8.53;4.00;;;16.20;1.00;;;;;;6250442;23;20385;-83
2022/06/20 05:54:57;;;;;;;10.90;3.77;;;16.30;1.00;;;;;;6250509;23;20389;-84
2022/06/20 05:58:04;;;;;;;12.30;4.50;;;16.30;1.00;;;;;;6231484;23;20455;-84
2022/06/20 06:01:06;;;;;;;;;;;;;;;;;;;;;
2022/06/20 06:03:42;;;;;;;11.83;4.37;;;16.30;1.00;;;;;;6244300;22;20453;-83
2022/06/20 06:06:39;;;;;;;20.97;5.17;;;16.30;1.00;;;;;;6250158;23;20374;-84
2022/06/20 06:09:44;;;;;;;15.03;5.57;;;16.30;1.00;;;;;;6250389;22;20414;-83
2022/06/20 06:12:59;;;;;;;;;;;;;;;;;;;;;
2022/06/20 06:16:46;;;;;;;13.13;5.87;;;16.40;99.90;;;;;;6241927;22;20414;-83
2022/06/20 06:18:48;;;;;;;11.27;5.43;;;16.40;99.90;;;;;;6250174;23;20904;-84
2022/06/20 06:21:50;;;;;;;;;;;;;;;;;;;;;
2022/06/20 06:24:22;;;;;;;11.00;5.03;;;16.60;99.90;;;;;;6251408;23;20394;-83
2022/06/20 06:27:05;;;;;;;9.17;3.97;;;16.60;1.00;;;;;;6250392;23;20462;-84
2022/06/20 06:30:08;;;;;;;11.43;4.30;;;16.70;1.00;;;;;;6253306;22;20437;-84
2022/06/20 06:32:38;;;;;;;12.57;5.10;;;16.90;1.00;;;;;;6244037;23;20391;-84
2022/06/20 06:35:29;;;;;;;9.87;3.60;;;17.00;1.00;;;;;;6250023;23;20387;-83
2022/06/20 06:38:22;;;;;;;6.97;3.20;;;17.10;99.90;;;;;;6249572;23;20729;-83
2022/06/20 06:43:59;;;;;;;5.50;3.03;;;17.20;1.00;;;;;;6246528;22;20407;-84
2022/06/20 06:46:45;;;;;;;9.17;2.77;;;17.30;99.90;;;;;;6249359;23;20435;-83
2022/06/20 06:49:27;;;;;;;12.17;3.47;;;17.40;1.00;;;;;;6249319;22;20487;-84
2022/06/20 06:52:10;;;;;;;;;;;;;;;;;;;;;
2022/06/20 06:54:53;;;;;;;11.83;3.33;;;17.50;80.00;;;;;;6251006;23;20455;-83
2022/06/20 06:57:29;;;;;;;10.03;3.27;;;17.50;1.00;;;;;;6251035;22;20390;-83
2022/06/20 07:00:14;;;;;;;8.63;2.90;;;17.40;1.00;;;;;;6249949;22;20431;-84
2022/06/20 07:03:17;;;;;;;8.20;3.30;;;17.50;1.00;;;;;;6249308;23;20379;-83
2022/06/20 07:05:53;;;;;;;7.90;2.90;;;17.50;99.90;;;;;;6249801;23;20426;-83
2022/06/20 07:08:43;;;;;;;12.93;2.60;;;17.40;99.90;;;;;;6248828;23;20391;-83
2022/06/20 07:11:43;;;;;;;13.73;3.00;;;17.30;99.90;;;;;;6250185;23;20407;-83
2022/06/20 07:14:21;;;;;;;11.80;2.50;;;17.30;63.70;;;;;;6249478;23;20412;-83
2022/06/20 07:17:19;;;;;;;;;;;;;;;;;;;;;
2022/06/20 07:20:11;;;;;;;8.50;2.70;;;17.30;1.00;;;;;;6250400;22;20514;-84
2022/06/20 07:22:44;;;;;;;4.63;2.27;;;17.30;1.00;;;;;;6248875;23;20394;-84
2022/06/20 07:25:32;;;;;;;;;;;;;;;;;;;;;
2022/06/20 07:28:35;;;;;;;7.27;2.37;;;17.60;1.00;;;;;;6250202;22;20450;-84
2022/06/20 07:31:16;;;;;;;6.77;2.40;;;17.80;1.00;;;;;;6249541;23;20396;-84
2022/06/20 07:34:28;;;;;;;5.73;1.93;;;18.20;99.90;;;;;;6248230;23;20385;-85
2022/06/20 07:40:29;;;;;;;7.93;2.90;;;18.70;99.90;;;;;;6250591;22;20516;-84
2022/06/20 07:43:35;;;;;;;6.47;2.40;;;18.90;99.90;;;;;;6249534;23;20375;-84
2022/06/20 07:46:33;;;;;;;6.37;2.70;;;19.20;94.40;;;;;;6210618;23;20407;-84
2022/06/20 07:49:10;;;;;;;9.00;3.10;;;19.90;1.00;;;;;;6249116;22;20415;-84
2022/06/20 07:51:49;;;;;;;16.20;3.57;;;20.10;1.00;;;;;;6251276;22;20362;-83
2022/06/20 07:55:07;;;;;;;9.50;3.90;;;20.30;1.00;;;;;;6244822;23;20398;-84
2022/06/20 07:58:12;;;;;;;;;;;;;;;;;;;;;
2022/06/20 08:01:09;;;;;;;15.07;3.20;;;21.60;99.90;;;;;;6250632;22;20465;-83
2022/06/20 08:13:22;;;;;;;6.30;2.17;;;35.70;99.90;;;;;;6215823;22;20414;-83
2022/06/20 08:15:54;;;;;;;6.27;2.53;;;37.60;99.90;;;;;;6248233;22;20376;-80
2022/06/20 08:18:22;;;;;;;5.70;2.20;;;40.20;99.90;;;;;;6246723;23;20830;-80
2022/06/20 08:21:00;;;;;;;8.60;2.80;;;38.10;99.90;;;;;;6247715;22;20518;-80
2022/06/20 08:24:15;;;;;;;5.43;2.27;;;37.80;99.90;;;;;;6246858;22;20410;-81
2022/06/20 08:26:47;;;;;;;10.30;2.43;;;38.30;99.90;;;;;;6207013;22;20384;-79
2022/06/20 08:29:22;;;;;;;7.30;2.07;;;36.10;99.90;;;;;;6244782;22;20411;-79
2022/06/20 08:31:52;;;;;;;4.87;2.40;;;34.60;99.90;;;;;;6246679;22;20425;-80
2022/06/20 08:34:34;;;;;;;4.70;1.97;;;33.70;99.90;;;;;;6244946;23;20800;-80
2022/06/20 08:37:20;;;;;;;6.37;2.60;;;35.80;99.90;;;;;;6246922;22;20367;-79
2022/06/20 08:39:53;;;;;;;6.37;2.10;;;37.70;99.90;;;;;;6246549;22;20403;-80
2022/06/20 08:42:56;;;;;;;6.87;2.67;;;36.00;99.90;;;;;;6245259;23;20424;-79
2022/06/20 08:45:52;;;;;;;6.80;2.17;;;34.40;99.90;;;;;;6245534;22;20391;-78
2022/06/20 08:48:56;;;;;;;8.20;2.70;;;31.80;99.90;;;;;;6243905;23;20360;-80
2022/06/20 08:51:25;;;;;;;5.90;2.17;;;30.60;99.10;;;;;;6245712;23;20417;-79
2022/06/20 08:54:26;;;;;;;4.80;1.80;;;36.60;99.90;;;;;;6218448;23;20784;-80
2022/06/20 08:56:59;;;;;;;4.30;1.53;;;41.30;99.90;;;;;;6123948;23;20469;-80
2022/06/20 08:59:43;;;;;;;7.80;2.00;;;43.40;99.90;;;;;;6226063;22;20756;-79
2022/06/20 09:02:49;;;;;;;8.43;3.27;;;42.20;99.90;;;;;;6218772;23;20388;-79
2022/06/20 09:05:21;;;;;;;5.90;2.40;;;38.60;95.00;;;;;;6244514;23;20424;-79
2022/06/20 09:07:59;;;;;;;6.57;2.00;;;35.70;89.60;;;;;;6244133;23;20400;-79
2022/06/20 09:11:00;;;;;;;6.40;2.10;;;34.10;83.60;;;;;;6244115;22;20894;-79
2022/06/20 09:13:58;;;;;;;4.90;2.40;;;33.30;80.50;;;;;;6217608;23;20848;-79
2022/06/20 09:16:24;;;;;;;5.87;1.90;;;33.40;81.40;;;;;;6246072;23;20750;-79
2022/06/20 09:18:55;;;;;;;5.17;2.47;;;35.40;98.50;;;;;;6246644;22;20391;-78
2022/06/20 09:21:33;;;;;;;3.53;1.43;;;34.90;86.40;;;;;;6245712;23;20141;-79
2022/06/20 09:24:13;;;;;;;4.73;1.57;;;33.50;77.80;;;;;;6220359;23;20689;-79
2022/06/20 09:26:44;;;;;;;4.23;1.47;;;32.10;71.40;;;;;;6244758;23;20356;-78
2022/06/20 09:29:27;;;;;;;4.53;1.90;;;31.10;68.50;;;;;;6245751;22;20779;-79
2022/06/20 09:32:07;;;;;;;5.33;1.67;;;30.50;68.00;;;;;;6218525;23;20470;-79
2022/06/20 09:35:19;;;;;;;7.93;2.37;;;30.20;67.30;;;;;;6245586;23;20394;-79
2022/06/20 09:38:06;;;;;;;4.23;2.30;;;31.00;73.60;;;;;;6244761;23;20348;-78
2022/06/20 09:40:52;;;;;;;3.30;1.80;;;32.60;82.10;;;;;;6245842;22;20399;-78
2022/06/20 09:43:44;;;;;;;3.70;1.60;;;32.50;81.30;;;;;;6245918;23;20403;-78
2022/06/20 09:46:34;;;;;;;4.77;1.43;;;32.70;80.30;;;;;;6245042;23;20482;-79
2022/06/20 09:49:33;;;;;;;6.37;1.53;;;32.80;79.60;;;;;;6218583;23;20414;-79
2022/06/20 09:52:21;;;;;;;5.37;1.17;;;35.40;90.50;;;;;;6246563;23;20356;-80
2022/06/20 09:55:29;;;;;;;4.23;1.50;;;35.70;84.30;;;;;;6245430;23;20356;-79
2022/06/20 09:58:16;;;;;;;2.67;1.10;;;35.00;78.10;;;;;;6198815;23;20418;-79
2022/06/20 10:00:47;;;;;;;4.20;1.50;;;36.90;85.20;;;;;;6246762;22;20419;-79
2022/06/20 10:03:22;;;;;;;7.27;1.60;;;37.40;81.80;;;;;;6245723;23;20372;-78
2022/06/20 10:06:03;;;;;;;7.70;1.83;;;36.40;75.70;;;;;;6245779;23;20422;-79
2022/06/20 10:08:50;;;;;;;4.03;1.53;;;35.50;69.90;;;;;;6218651;23;20387;-79
2022/06/20 10:11:25;;;;;;;4.50;1.40;;;34.30;63.40;;;;;;6245239;23;20521;-79
2022/06/20 10:14:10;;;;;;;3.10;1.50;;;33.20;59.10;;;;;;6244974;23;20371;-78
2022/06/20 10:16:52;;;;;;;5.00;1.70;;;32.00;54.90;;;;;;6217191;23;20471;-78
2022/06/20 10:19:35;;;;;;;3.33;1.70;;;30.80;51.50;;;;;;6244214;22;20507;-79
2022/06/20 10:22:07;;;;;;;5.30;1.90;;;29.60;49.00;;;;;;6244574;23;20772;-78
2022/06/20 10:25:09;;;;;;;3.43;1.50;;;28.90;48.50;;;;;;6244795;23;20368;-77
2022/06/20 10:28:00;;;;;;;5.33;1.97;;;28.80;50.00;;;;;;6244855;23;20356;-80
2022/06/20 10:30:53;;;;;;;6.70;2.00;;;28.70;52.10;;;;;;6217587;23;20412;-79
2022/06/20 10:33:33;;;;;;;4.10;1.50;;;31.60;64.20;;;;;;6245119;23;20818;-79
2022/06/20 10:36:30;;;;;;;3.77;1.53;;;34.20;75.30;;;;;;6218569;23;20379;-79
2022/06/20 10:38:59;;;;;;;2.93;1.30;;;36.00;76.90;;;;;;6243499;22;20427;-79
2022/06/20 10:41:30;;;;;;;5.10;1.90;;;34.90;67.90;;;;;;6244575;23;20364;-79
2022/06/20 10:44:28;;;;;;;6.40;1.80;;;34.40;63.30;;;;;;6245885;23;20349;-80
2022/06/20 10:47:41;;;;;;;3.90;1.33;;;35.80;68.20;;;;;;6218069;23;20419;-78
2022/06/20 10:50:10;;;;;;;4.33;1.33;;;35.20;62.40;;;;;;6243747;22;20411;-79
2022/06/20 10:53:12;;;;;;;3.77;1.53;;;36.00;63.80;;;;;;6243668;23;20437;-79
2022/06/20 10:56:13;;;;;;;4.50;1.70;;;37.90;69.10;;;;;;6245669;22;20405;-79
2022/06/20 10:59:18;;;;;;;4.40;1.57;;;39.00;67.60;;;;;;6209764;22;20375;-81
2022/06/20 11:01:50;;;;;;;4.13;1.57;;;39.40;65.90;;;;;;6200354;22;20490;-80
2022/06/20 11:04:46;;;;;;;6.40;1.40;;;40.20;64.90;;;;;;6243642;23;20383;-80
2022/06/20 11:07:42;;;;;;;3.97;1.57;;;39.30;59.00;;;;;;6244049;23;20380;-79
2022/06/20 11:10:41;;;;;;;5.77;1.40;;;37.80;54.10;;;;;;6201458;22;20442;-78
2022/06/20 11:13:09;;;;;;;5.80;1.63;;;36.20;48.60;;;;;;6244592;22;20356;-79
2022/06/20 11:15:43;;;;;;;4.30;1.57;;;35.00;45.10;;;;;;6244536;23;20392;-79
2022/06/20 11:18:19;;;;;;;6.00;1.73;;;33.90;42.40;;;;;;6244072;23;20842;-79
2022/06/20 11:20:55;;;;;;;4.47;1.80;;;32.70;40.70;;;;;;6243014;22;20937;-80
2022/06/20 11:23:49;;;;;;;5.13;1.70;;;31.60;39.00;;;;;;6244431;22;20368;-79
2022/06/20 11:26:43;;;;;;;3.87;1.63;;;31.00;39.30;;;;;;6243956;23;20367;-78
2022/06/20 11:29:21;;;;;;;8.23;4.17;;;31.10;41.40;;;;;;6243184;22;20400;-78
2022/06/20 11:32:16;;;;;;;3.00;1.53;;;31.60;45.00;;;;;;6244307;23;20348;-78
2022/06/20 11:35:31;;;;;;;5.27;2.10;;;33.00;50.00;;;;;;6244050;22;20364;-79
2022/06/20 11:38:25;;;;;;;4.90;2.10;;;35.10;55.70;;;;;;6244936;22;20395;-79
2022/06/20 11:41:00;;;;;;;4.47;1.70;;;36.20;56.20;;;;;;6245184;22;20414;-79
2022/06/20 11:44:09;;;;;;;4.23;1.77;;;36.50;56.40;;;;;;6245184;22;20774;-80
2022/06/20 11:46:53;;;;;;;3.00;1.60;;;36.40;52.80;;;;;;6243472;23;20437;-78
2022/06/20 11:49:27;;;;;;;5.77;1.80;;;36.40;51.60;;;;;;6245354;22;20398;-80
2022/06/20 11:52:38;;;;;;;4.23;1.67;;;36.80;51.80;;;;;;6217852;23;20468;-79
2022/06/20 11:55:25;;;;;;;4.87;1.90;;;36.40;48.70;;;;;;6244326;23;20685;-79
2022/06/20 11:57:57;;;;;;;5.90;2.30;;;34.90;43.40;;;;;;6243585;23;20360;-80
2022/06/20 12:00:30;;;;;;;7.30;2.27;;;33.70;39.80;;;;;;6217125;23;20427;-78
2022/06/20 12:03:14;;;;;;;4.93;2.10;;;32.90;38.30;;;;;;6217257;23;20423;-78
2022/06/20 12:05:55;;;;;;;6.50;2.27;;;32.10;35.60;;;;;;6244619;23;20356;-79
2022/06/20 12:08:46;;;;;;;2.87;1.83;;;31.40;34.50;;;;;;6216685;23;20379;-78
2022/06/20 12:11:47;;;;;;;4.83;2.17;;;31.70;36.90;;;;;;6244322;23;20372;-80
2022/06/20 12:14:35;;;;;;;8.63;1.97;;;31.90;39.30;;;;;;6237080;23;20396;-79
2022/06/20 12:17:22;;;;;;;3.57;2.13;;;31.60;38.10;;;;;;6243214;23;20418;-79
2022/06/20 12:25:44;;;;;;;4.90;2.13;;;32.40;43.10;;;;;;6244342;23;20355;-79
2022/06/20 12:28:24;;;;;;;2.80;1.67;;;32.80;44.00;;;;;;6216667;23;20430;-79
2022/06/20 12:31:02;;;;;;;2.23;1.47;;;32.20;42.50;;;;;;6217265;23;20399;-79
2022/06/20 12:33:29;;;;;;;3.53;1.70;;;33.30;45.70;;;;;;6243471;23;20406;-79
2022/06/20 12:36:01;;;;;;;3.70;2.10;;;33.40;46.70;;;;;;6243809;23;20374;-79
2022/06/20 12:38:48;;;;;;;3.60;1.90;;;33.40;45.80;;;;;;6243984;23;20367;-80
2022/06/20 12:41:19;;;;;;;4.23;2.00;;;33.80;47.40;;;;;;6244727;23;20963;-79
2022/06/20 12:44:17;;;;;;;2.90;1.67;;;33.60;45.80;;;;;;6217009;23;20384;-78
2022/06/20 12:47:10;;;;;;;3.67;1.97;;;34.20;46.80;;;;;;6243988;23;20705;-79
2022/06/20 12:50:00;;;;;;;3.27;1.80;;;34.80;47.50;;;;;;6217246;23;20418;-78
2022/06/20 12:52:35;;;;;;;4.73;2.37;;;35.20;47.30;;;;;;6217742;23;20379;-79
2022/06/20 12:55:18;;;;;;;3.03;2.17;;;35.40;47.00;;;;;;6217330;23;20387;-79
2022/06/20 12:58:12;;;;;;;5.53;1.97;;;35.40;46.20;;;;;;6245372;23;20921;-78
2022/06/20 13:00:51;;;;;;;6.67;2.40;;;35.30;44.60;;;;;;6244460;22;20435;-80
2022/06/20 13:03:42;;;;;;;5.00;1.70;;;35.20;43.00;;;;;;6218057;23;20383;-79
2022/06/20 13:06:43;;;;;;;5.10;1.80;;;35.10;42.40;;;;;;6217388;23;20402;-78
2022/06/20 13:09:47;;;;;;;5.30;2.00;;;34.30;38.70;;;;;;6227757;22;20510;-79
2022/06/20 13:12:40;;;;;;;4.30;2.37;;;33.40;36.20;;;;;;6189601;23;20386;-78
2022/06/20 13:15:40;;;;;;;3.83;1.90;;;32.70;34.90;;;;;;6243797;23;20402;-77
2022/06/20 13:18:34;;;;;;;2.73;2.13;;;32.20;34.00;;;;;;6216398;23;20380;-79
2022/06/20 13:21:25;;;;;;;6.20;2.33;;;32.20;34.60;;;;;;6216384;23;20772;-78
2022/06/20 13:24:19;;;;;;;5.57;2.17;;;31.60;33.10;;;;;;6215978;23;20893;-79
2022/06/20 13:26:48;;;;;;;4.63;2.03;;;31.40;32.00;;;;;;6242433;23;20454;-78
2022/06/20 13:29:35;;;;;;;5.07;2.17;;;31.50;33.50;;;;;;6216803;23;20404;-78
2022/06/20 13:32:19;;;;;;;3.53;1.70;;;31.30;32.90;;;;;;6243614;23;20363;-79
2022/06/20 13:34:55;;;;;;;3.90;2.03;;;30.70;30.20;;;;;;6215863;23;20386;-78
2022/06/20 13:37:40;;;;;;;5.33;1.80;;;31.00;32.40;;;;;;6242676;23;20360;-78
2022/06/20 13:40:14;;;;;;;7.33;2.03;;;31.10;33.30;;;;;;6243157;22;21043;-79
2022/06/20 13:43:20;;;;;;;5.57;2.47;;;31.00;46.50;;;;;;6242821;23;20387;-79
2022/06/20 13:46:16;;;;;;;4.77;2.17;;;30.60;42.40;;;;;;6243457;23;20903;-79
2022/06/20 13:48:47;;;;;;;3.57;2.77;;;30.20;32.20;;;;;;6214792;22;20395;-78
2022/06/20 13:51:27;;;;;;;4.83;2.10;;;30.20;32.50;;;;;;6216406;23;20379;-79
2022/06/20 13:54:03;;;;;;;3.27;1.97;;;30.00;31.30;;;;;;6215667;23;20372;-79
2022/06/20 13:56:34;;;;;;;3.47;2.07;;;29.90;32.40;;;;;;6243362;23;20359;-78
2022/06/20 13:59:24;;;;;;;2.90;2.10;;;29.70;31.40;;;;;;6242983;22;20445;-78
2022/06/20 14:02:21;;;;;;;4.67;2.83;;;29.30;30.50;;;;;;6200606;23;21065;-78
2022/06/20 14:04:46;;;;;;;3.13;2.33;;;28.80;29.80;;;;;;6223782;23;20478;-78
2022/06/20 14:07:21;;;;;;;3.83;2.30;;;28.80;30.40;;;;;;6246063;23;20392;-79
2022/06/20 14:09:53;;;;;;;5.57;2.60;;;28.80;30.70;;;;;;6246360;22;20188;-78
2022/06/20 14:12:41;;;;;;;5.27;2.57;;;28.50;30.00;;;;;;6219249;23;20379;-79
2022/06/20 14:15:36;;;;;;;5.10;2.67;;;28.60;31.50;;;;;;6246763;23;20391;-78
2022/06/20 14:18:04;;;;;;;5.93;2.40;;;28.70;31.90;;;;;;6199673;23;21001;-79
2022/06/20 14:20:42;;;;;;;5.30;2.50;;;28.60;32.30;;;;;;6219351;23;20766;-78
2022/06/20 14:23:18;;;;;;;4.10;2.57;;;28.50;32.70;;;;;;6246534;23;20364;-80
2022/06/20 14:25:47;;;;;;;4.17;2.10;;;28.30;31.80;;;;;;6246426;23;20414;-78
2022/06/20 14:28:34;;;;;;;4.10;2.60;;;28.00;31.80;;;;;;6246006;23;20372;-79
2022/06/20 14:31:19;;;;;;;5.20;2.30;;;27.90;32.10;;;;;;6245084;22;20388;-78
2022/06/20 14:33:52;;;;;;;4.67;2.43;;;27.90;32.20;;;;;;6246437;23;20351;-78
2022/06/20 14:36:36;;;;;;;5.17;2.43;;;27.80;32.30;;;;;;6246179;23;20360;-79
2022/06/20 14:39:19;;;;;;;7.00;3.07;;;27.80;33.40;;;;;;6218910;23;20406;-78
2022/06/20 14:41:58;;;;;;;3.20;2.50;;;27.80;33.50;;;;;;6245999;23;20467;-78
2022/06/20 14:44:39;;;;;;;6.43;2.60;;;27.70;34.30;;;;;;6219198;23;20866;-79
2022/06/20 14:47:31;;;;;;;10.10;2.93;;;27.80;34.50;;;;;;6245765;23;20399;-78
2022/06/20 14:50:11;;;;;;;9.20;3.00;;;27.80;35.40;;;;;;6219220;23;20487;-79
2022/06/20 14:53:08;;;;;;;4.93;2.83;;;27.50;34.00;;;;;;6219631;23;20384;-79
2022/06/20 14:55:34;;;;;;;7.23;2.50;;;27.40;33.10;;;;;;6173163;23;20394;-79
2022/06/20 14:58:20;;;;;;;4.30;2.50;;;27.30;32.50;;;;;;6219183;23;20881;-79
2022/06/20 15:01:00;;;;;;;6.63;3.27;;;27.30;33.80;;;;;;6219563;23;20188;-79
2022/06/20 15:03:31;;;;;;;6.93;2.97;;;27.30;45.80;;;;;;6246436;23;20452;-79
2022/06/20 15:06:21;;;;;;;5.17;2.83;;;27.20;32.40;;;;;;6245868;23;20376;-78
2022/06/20 15:08:56;;;;;;;4.83;2.67;;;27.30;34.50;;;;;;6246268;22;20906;-78
2022/06/20 15:11:28;;;;;;;6.43;2.87;;;27.20;33.50;;;;;;6218455;23;20448;-80
2022/06/20 15:14:16;;;;;;;6.57;3.37;;;27.10;34.40;;;;;;6245808;23;20447;-78
2022/06/20 15:16:51;;;;;;;6.00;2.93;;;27.20;33.60;;;;;;6218948;23;20450;-79